Skip Navigation Links
NOAA logo - Click to go to the NOAA homepage
NOAA's National Weather Service
Alaska Aviation Weather Unit
  NWS logo - Click to go to the NWS homepage
Left Navbar Graphic     03 AKDT = 11 GMT

   
NOAA is celebrating 200 years of science, service, and stewardship. Visit the NOAA 200th celebration Web site to learn more.
USA.gov is the U.S. Government's official Web portal to all Federal, state and local government Web resources and services.
Facebook
NWS on Facebook

Important Change Regarding the AAWU Web Presence

 

Over the last several months, the AAWU has been working to navigate its webpages to a nationally supported server. Security, as well as other needs, have necessitated the change.  We have been given an extension for the site changeover while we diligently work at addressing feedback received. As of July 14, 2017, aawu.arh.noaa.gov will be discontinued. The new AAWU web address is weather.gov/aawu. It is now live and will run in-parallel with the old site until it is discontinued on July 14, 2017. Please continue to send any feedback or questions regarding the new webpages to nws.ar.aawu.webauthors@noaa.gov.  Thank you for your patience during this time of transition.
AAWU Home :: Display TAF Add Bookmark
METAR PADE 230553Z AUTO 24017KT 10SM FEW030 SCT036 OVC043 07/06
 A2971 RMK AO2 SLP060 T00720061 10100 20072 58003 PWINO TSNO $=

SPECI PADE 230621Z AUTO 24017KT 10SM FEW013 BKN028 OVC040 07/06
 A2970 RMK AO2 T00720056 PWINO TSNO $=

SPECI PADE 230629Z AUTO 24016G24KT 10SM FEW006 BKN029 OVC036 07/06 A2970
     RMK AO2 T00720056 PWINO TSNO $=

SPECI PADE 230641Z AUTO 24016KT 10SM FEW008 OVC031 07/06 A2970 RMK AO2
     T00720056 PWINO TSNO $=

METAR PADE 230653Z AUTO 23015KT 10SM BKN011 OVC031 07/06 A2970 RMK AO2
     SLP059 T00720061 PWINO TSNO $=

METAR PADE 230753Z AUTO 23013KT 10SM BKN012 OVC018 07/06 A2970 RMK AO2
     SLP059 T00720056 PWINO TSNO $=

SPECI PADE 230832Z AUTO 23014KT 10SM SCT007 BKN013 OVC032 07/06 A2970
     RMK AO2 T00720056 PWINO TSNO $=

SPECI PADE 230842Z AUTO 23014KT 10SM BKN007 OVC013 07/06 A2970 RMK AO2
     T00720056 PWINO TSNO $=

METAR PADE 230853Z AUTO 24013KT 10SM OVC007 07/06 A2970 RMK AO2
 SLP058 T00720056 401170072 57001 PWINO TSNO $=

METAR PADE 230953Z AUTO 23012KT 10SM OVC007 07/06 A2970 RMK AO2 SLP056
     T00720056 PWINO TSNO $=

METAR PADE 231053Z AUTO 24013KT 10SM OVC007 07/06 A2968 RMK AO2 SLP051
     T00670056 PWINO TSNO $=


NOAA's National Weather Service
Alaska Aviation Weather Unit
6930 Sand Lake Road
Anchorage, AK 99502-1845
Disclaimer
Credits
Glossary
Privacy Policy
About Us
Career Opportunities
Contact AAWU Internet Services Site last modified: April, 17th 2012